00:46
Airports
Links
Donate
Help keep this website running!
PayPal
Bitcoin
METAR
RJTY 202356Z AUTO 05012KT 10SM CLR 08/M03 A3027 RMK AO2 SLP260 T00751034 10081 20035 52028 FZRANO $
Current Weather Conditions at RJTY
VFR 23:56:00 20-11-17
Automated station, no observer
Altimeter:30.27 hg
Temp:7.5°c 45°f
Dew point:-3.4°c 27°f
Wind:12 knots, 13.8 mph, 6 m/s, from 50°
Visibility:10.0 statute miles
(CLR) Clear
Past METAR reports
VFR 22:56:00 20-11-17
Automated station, no observer
Altimeter:30.25 hg
Temp:6.7°c 43°f
Dew point:-5.6°c 23°f
Wind:7 knots, 8.1 mph, 4 m/s, from 40°
Visibility:10.0 statute miles
(CLR) Clear
RJTY 202256Z AUTO 04007KT 10SM CLR 07/M06 A3025 RMK AO2 SLP253 T00671056 FZRANO $
VFR 21:56:00 20-11-17
Automated station, no observer
Altimeter:30.22 hg
Temp:5.9°c 41°f
Dew point:-6.4°c 21°f
Wind:11 knots, 12.7 mph, 6 m/s, from 340°
Visibility:10.0 statute miles
(CLR) Clear
RJTY 202156Z AUTO 34011KT 10SM CLR 06/M06 A3022 RMK AO2 SLP244 T00591064 FZRANO $
VFR 20:56:00 20-11-17
Automated station, no observer
Altimeter:30.18 hg
Temp:4.3°c 39°f
Dew point:-4.2°c 25°f
Wind:16 knots, 18.4 mph, 8 m/s, from 20°
Visibility:10.0 statute miles
(CLR) Clear
RJTY 202056Z AUTO 02016KT 10SM CLR 04/M04 A3018 RMK AO2 SLP230 T00431042 52028 FZRANO $
VFR 19:56:00 20-11-17
Automated station, no observer
Altimeter:30.17 hg
Temp:4.5°c 39°f
Dew point:-2.2°c 28°f
Wind:16 knots, 18.4 mph, 8 m/s, from 30°
Visibility:10.0 statute miles
(CLR) Clear
RJTY 201956Z AUTO 03016KT 10SM CLR 05/M02 A3017 RMK AO2 SLP226 T00451022 FZRANO $
VFR 18:56:00 20-11-17
Automated station, no observer
Altimeter:30.14 hg
Temp:3.9°c 37°f
Dew point:-2.3°c 28°f
Wind:12 knots, 13.8 mph, 6 m/s, from 20°
Visibility:10.0 statute miles
(CLR) Clear
RJTY 201856Z AUTO 02012KT 10SM CLR 04/M02 A3014 RMK AO2 SLP215 T00391023 FZRANO $
TAF
TAF AMD RJTY 210012Z 2100/2203 06010G15KT 9999 FEW190 520003 QNH3025INS BECMG 2106/2107 11009KT 9999 SCT030 QNH3031INS BECMG 2114/2115 VRB06KT 9999 BKN030 610303 QNH3036INS TX11/2106Z TN01/2118Z
Forecast at RJTY
00:00 21-11-17 to 06:00 21-11-17
Wind:10 Knots from 60°
Visibility:6.21 statute miles
19000FEW A few
BECMG 06:00 21-11-17 to 14:00 21-11-17
Wind:9 Knots from 110°
Visibility:6.21 statute miles
3000SCT Scattered
BECMG 14:00 21-11-17 to 03:00 22-11-17
Wind:6 Knots from 360°
Visibility:6.21 statute miles
3000BKN Broken